createdAt,value
2023-03-18T00:01:29.667Z,4.30
2023-03-18T00:03:57.596Z,4.20
2023-03-18T00:06:25.602Z,4.20
2023-03-18T00:08:54.576Z,4.10
2023-03-18T00:11:22.953Z,4.20
2023-03-18T00:13:52.910Z,4.20
2023-03-18T00:16:21.296Z,4.20
2023-03-18T00:18:49.745Z,4.10
2023-03-18T00:21:18.979Z,4.00
2023-03-18T00:23:48.970Z,4.00
2023-03-18T00:26:18.205Z,4.00
2023-03-18T00:28:47.564Z,4.00
2023-03-18T00:31:17.239Z,4.00
2023-03-18T00:33:46.511Z,4.00
2023-03-18T00:36:16.606Z,3.90
2023-03-18T00:38:46.582Z,3.90
2023-03-18T00:41:17.152Z,3.90
2023-03-18T00:43:49.367Z,3.70
2023-03-18T00:46:21.015Z,3.70
2023-03-18T00:48:49.577Z,3.70
2023-03-18T00:51:22.543Z,3.70
2023-03-18T00:53:52.529Z,3.70
2023-03-18T00:56:23.998Z,3.70
2023-03-18T00:58:52.632Z,3.70
2023-03-18T01:01:23.437Z,3.60
2023-03-18T01:03:52.263Z,3.60
2023-03-18T01:06:23.608Z,3.50
2023-03-18T01:08:52.725Z,3.50
2023-03-18T01:11:21.207Z,3.40
2023-03-18T01:13:50.576Z,3.40
2023-03-18T01:16:19.662Z,3.40
2023-03-18T01:18:49.345Z,3.40
2023-03-18T01:21:18.433Z,3.20
2023-03-18T01:23:56.507Z,3.30
2023-03-18T01:26:27.054Z,3.30
2023-03-18T01:28:58.270Z,3.20
2023-03-18T01:31:26.773Z,3.20
2023-03-18T01:34:01.066Z,3.10
2023-03-18T01:36:38.135Z,3.10
2023-03-18T01:39:10.517Z,3.00
2023-03-18T01:41:40.298Z,3.00
2023-03-18T01:44:14.953Z,2.90
2023-03-18T01:46:46.177Z,3.00
2023-03-18T01:49:23.116Z,3.00
2023-03-18T01:51:55.389Z,2.90
2023-03-18T01:54:25.164Z,2.90
2023-03-18T01:56:54.017Z,2.90
2023-03-18T01:59:26.396Z,2.80
2023-03-18T02:01:59.322Z,2.80
2023-03-18T02:04:36.455Z,2.70
2023-03-18T02:09:58.155Z,2.80
2023-03-18T02:12:28.373Z,2.70
2023-03-18T02:15:02.360Z,2.70
2023-03-18T02:17:33.799Z,2.70
2023-03-18T02:20:16.341Z,2.70
2023-03-18T02:22:47.900Z,2.70
2023-03-18T02:25:26.080Z,2.80
2023-03-18T02:28:00.168Z,2.80
2023-03-18T02:30:37.334Z,2.70
2023-03-18T02:33:08.759Z,2.60
2023-03-18T02:35:38.012Z,2.60
2023-03-18T02:38:06.222Z,2.60
2023-03-18T02:40:37.007Z,2.60
2023-03-18T02:43:20.484Z,2.50
2023-03-18T02:46:12.298Z,2.50
2023-03-18T02:48:44.587Z,2.60
2023-03-18T02:51:16.860Z,2.50
2023-03-18T02:53:46.245Z,2.50
2023-03-18T02:56:16.056Z,2.40
2023-03-18T02:58:47.128Z,2.50
2023-03-18T03:01:16.841Z,2.40
2023-03-18T03:03:44.953Z,2.40
2023-03-18T03:06:14.683Z,2.30
2023-03-18T03:08:42.847Z,2.30
2023-03-18T03:11:13.188Z,2.30
2023-03-18T03:13:45.249Z,2.30
2023-03-18T03:16:18.258Z,2.30
2023-03-18T03:18:46.689Z,2.30
2023-03-18T03:21:16.223Z,2.30
2023-03-18T03:23:48.389Z,2.30
2023-03-18T03:26:16.860Z,2.30
2023-03-18T03:28:44.837Z,2.30
2023-03-18T03:31:12.958Z,2.20
2023-03-18T03:33:43.832Z,2.20
2023-03-18T03:36:14.270Z,2.20
2023-03-18T03:38:42.662Z,2.10
2023-03-18T03:41:11.700Z,2.10
2023-03-18T03:43:40.532Z,2.10
2023-03-18T03:46:11.560Z,2.10
2023-03-18T03:48:40.491Z,2.20
2023-03-18T03:51:15.868Z,2.20
2023-03-18T03:53:46.340Z,2.20
2023-03-18T03:56:15.635Z,2.10
2023-03-18T03:58:43.947Z,2.00
2023-03-18T04:01:13.093Z,2.10
2023-03-18T04:03:42.704Z,2.00
2023-03-18T04:06:11.154Z,2.00
2023-03-18T04:08:48.014Z,2.00
2023-03-18T04:11:16.388Z,1.90
2023-03-18T04:13:45.221Z,1.90
2023-03-18T04:16:14.477Z,1.90
2023-03-18T04:18:43.111Z,1.90
2023-03-18T04:21:11.816Z,1.90
2023-03-18T04:23:55.382Z,1.90
2023-03-18T04:26:23.853Z,1.90
2023-03-18T04:28:54.374Z,1.90
2023-03-18T04:31:24.028Z,1.80
2023-03-18T04:33:52.667Z,1.80
2023-03-18T04:36:21.091Z,1.80
2023-03-18T04:38:50.185Z,1.70
2023-03-18T04:41:19.813Z,1.70
2023-03-18T04:43:48.859Z,1.70
2023-03-18T04:46:17.201Z,1.80
2023-03-18T04:48:47.516Z,1.70
2023-03-18T04:51:16.403Z,1.70
2023-03-18T04:53:44.912Z,1.80
2023-03-18T04:56:13.896Z,1.70
2023-03-18T05:01:38.709Z,1.70
2023-03-18T05:04:08.248Z,1.70
2023-03-18T05:06:45.993Z,1.70
2023-03-18T05:09:15.456Z,1.80
2023-03-18T05:11:44.981Z,1.80
2023-03-18T05:14:37.589Z,1.80
2023-03-18T05:17:06.144Z,1.70
2023-03-18T05:19:38.185Z,1.70
2023-03-18T05:22:18.879Z,1.70
2023-03-18T05:24:49.734Z,1.70
2023-03-18T05:27:19.856Z,1.70
2023-03-18T05:29:58.806Z,1.70
2023-03-18T05:32:41.472Z,1.70
2023-03-18T05:35:11.986Z,1.70
2023-03-18T05:37:48.201Z,1.70
2023-03-18T05:40:18.156Z,1.70
2023-03-18T05:43:00.798Z,1.70
2023-03-18T05:45:53.617Z,1.80
2023-03-18T05:48:28.720Z,1.80
2023-03-18T05:51:00.348Z,1.80
2023-03-18T05:53:32.294Z,1.90
2023-03-18T05:56:16.840Z,1.90
2023-03-18T05:58:46.757Z,2.00
2023-03-18T06:01:31.557Z,2.00
2023-03-18T06:04:00.113Z,2.00
2023-03-18T06:06:28.943Z,2.00
2023-03-18T06:08:58.510Z,2.10
2023-03-18T06:11:30.142Z,2.10
2023-03-18T06:13:59.880Z,2.20
2023-03-18T06:16:28.339Z,2.20
2023-03-18T06:18:58.976Z,2.20
2023-03-18T06:21:27.574Z,2.30
2023-03-18T06:23:56.738Z,2.40
2023-03-18T06:26:26.668Z,2.40
2023-03-18T06:28:56.456Z,2.50
2023-03-18T06:31:26.587Z,2.60
2023-03-18T06:33:56.755Z,2.60
2023-03-18T06:36:27.768Z,2.70
2023-03-18T06:38:56.028Z,2.80
2023-03-18T06:41:26.355Z,2.80
2023-03-18T06:44:14.342Z,2.90
2023-03-18T06:46:43.993Z,3.00
2023-03-18T06:49:34.749Z,3.10
2023-03-18T06:52:14.539Z,3.30
2023-03-18T06:54:46.874Z,3.40
2023-03-18T06:57:17.691Z,3.50
2023-03-18T06:59:47.420Z,3.60
2023-03-18T07:02:16.274Z,3.70
2023-03-18T07:04:47.853Z,3.80
2023-03-18T07:07:17.392Z,3.90
2023-03-18T07:09:46.203Z,4.00
2023-03-18T07:12:16.866Z,4.10
2023-03-18T07:14:45.211Z,4.20
2023-03-18T07:17:14.511Z,4.20
2023-03-18T07:19:42.856Z,4.30
2023-03-18T07:22:11.852Z,4.40
2023-03-18T07:24:41.393Z,4.40
2023-03-18T07:27:10.048Z,4.50
2023-03-18T07:29:38.290Z,4.60
2023-03-18T07:32:07.020Z,4.70
2023-03-18T07:34:35.173Z,4.70
2023-03-18T07:37:04.482Z,4.80
2023-03-18T07:39:32.492Z,4.90
2023-03-18T07:42:03.282Z,4.90
2023-03-18T07:44:32.066Z,5.00
2023-03-18T07:47:00.129Z,5.10
2023-03-18T07:49:30.553Z,5.20
2023-03-18T07:51:59.235Z,5.30
2023-03-18T07:54:29.049Z,5.40
2023-03-18T07:56:57.371Z,5.60
2023-03-18T07:59:37.113Z,5.70
2023-03-18T08:02:09.185Z,5.90
2023-03-18T08:04:37.787Z,6.00
2023-03-18T08:07:06.345Z,6.20
2023-03-18T08:09:34.461Z,6.50
2023-03-18T08:12:03.064Z,6.70
2023-03-18T08:14:35.906Z,6.90
2023-03-18T08:17:03.918Z,7.10
2023-03-18T08:19:32.698Z,7.30
2023-03-18T08:22:00.616Z,7.50
2023-03-18T08:24:28.877Z,7.60
2023-03-18T08:26:57.422Z,7.70
2023-03-18T08:29:25.650Z,7.80
2023-03-18T08:31:55.215Z,7.90
2023-03-18T08:34:23.829Z,8.00
2023-03-18T08:36:52.280Z,8.10
2023-03-18T08:39:21.046Z,8.10
2023-03-18T08:41:49.846Z,8.10
2023-03-18T08:44:17.983Z,8.20
2023-03-18T08:46:46.620Z,8.30
2023-03-18T08:49:16.285Z,8.40
2023-03-18T08:51:44.870Z,8.60
2023-03-18T08:54:13.412Z,8.60
2023-03-18T08:56:41.411Z,8.80
2023-03-18T08:59:10.173Z,9.00
2023-03-18T09:01:39.758Z,9.10
2023-03-18T09:04:09.050Z,9.20
2023-03-18T09:06:38.443Z,9.30
2023-03-18T09:09:06.667Z,9.40
2023-03-18T09:11:37.705Z,9.50
2023-03-18T09:14:05.732Z,9.60
2023-03-18T09:16:35.017Z,9.70
2023-03-18T09:19:03.912Z,9.80
2023-03-18T09:21:32.256Z,10.00
2023-03-18T09:24:01.698Z,10.10
2023-03-18T09:26:30.493Z,10.20
2023-03-18T09:28:58.504Z,10.30
2023-03-18T09:31:29.012Z,10.40
2023-03-18T09:33:57.081Z,10.50
2023-03-18T09:36:26.797Z,10.50
2023-03-18T09:38:54.710Z,10.70
2023-03-18T09:41:34.560Z,10.90
2023-03-18T09:44:13.697Z,10.90
2023-03-18T09:46:58.034Z,11.10
2023-03-18T09:49:48.166Z,11.30
2023-03-18T09:52:24.712Z,11.40
2023-03-18T09:54:58.780Z,11.50
2023-03-18T09:57:33.362Z,11.60
2023-03-18T10:00:26.104Z,11.60
2023-03-18T10:02:59.227Z,11.60
2023-03-18T10:05:32.616Z,11.70
2023-03-18T10:08:36.159Z,11.70
2023-03-18T10:11:12.197Z,11.80
2023-03-18T10:13:48.926Z,11.90
2023-03-18T10:16:25.045Z,12.00
2023-03-18T10:18:53.628Z,12.10
2023-03-18T10:21:32.235Z,12.10
2023-03-18T10:24:09.858Z,12.10
2023-03-18T10:26:42.739Z,12.20
2023-03-18T10:29:35.859Z,12.30
2023-03-18T10:32:12.524Z,12.30
2023-03-18T10:34:58.152Z,12.30
2023-03-18T10:40:35.652Z,12.40
2023-03-18T10:43:05.710Z,12.40
2023-03-18T10:45:35.558Z,12.50
2023-03-18T10:48:10.983Z,12.60
2023-03-18T10:50:43.481Z,12.70
2023-03-18T10:53:18.210Z,12.70
2023-03-18T10:55:57.541Z,12.70
2023-03-18T10:58:25.801Z,12.90
2023-03-18T11:00:55.965Z,12.90
2023-03-18T11:03:27.978Z,13.20
2023-03-18T11:05:58.513Z,13.30
2023-03-18T11:08:34.427Z,13.40
2023-03-18T11:11:28.028Z,13.40
2023-03-18T11:13:57.635Z,13.50
2023-03-18T11:16:40.060Z,13.60
2023-03-18T11:19:29.683Z,13.60
2023-03-18T11:22:04.370Z,13.70
2023-03-18T11:24:42.539Z,13.80
2023-03-18T11:27:34.085Z,14.00
2023-03-18T11:30:11.153Z,14.10
2023-03-18T11:32:52.632Z,14.30
2023-03-18T11:35:22.583Z,14.40
2023-03-18T11:37:52.060Z,14.40
2023-03-18T11:40:26.217Z,14.40
2023-03-18T11:42:59.438Z,14.40
2023-03-18T11:45:44.449Z,14.60
2023-03-18T11:48:19.095Z,14.60
2023-03-18T11:51:18.345Z,14.60
2023-03-18T11:53:58.170Z,14.60
2023-03-18T11:56:34.085Z,14.80
2023-03-18T11:59:18.596Z,15.00
2023-03-18T12:01:55.912Z,15.10
2023-03-18T12:04:54.196Z,15.10
2023-03-18T12:07:49.853Z,15.20
2023-03-18T12:10:25.031Z,15.30
2023-03-18T12:13:05.850Z,15.40
2023-03-18T12:15:42.943Z,15.40
2023-03-18T12:18:25.665Z,15.30
2023-03-18T12:20:57.120Z,15.20
2023-03-18T12:23:43.123Z,15.10
2023-03-18T12:26:16.665Z,15.00
2023-03-18T12:29:17.537Z,15.00
2023-03-18T12:32:02.433Z,15.30
2023-03-18T12:34:43.862Z,15.50
2023-03-18T12:37:32.141Z,15.50
2023-03-18T12:40:16.710Z,15.60
2023-03-18T12:42:56.177Z,15.50
2023-03-18T12:45:28.062Z,15.50
2023-03-18T12:48:00.576Z,15.60
2023-03-18T12:50:34.586Z,15.70
2023-03-18T12:53:08.867Z,15.70
2023-03-18T12:56:01.685Z,15.90
2023-03-18T12:58:38.409Z,15.90
2023-03-18T13:01:17.905Z,15.80
2023-03-18T13:03:51.354Z,15.70
2023-03-18T13:06:25.237Z,15.70
2023-03-18T13:09:03.401Z,15.80
2023-03-18T13:11:45.204Z,15.90
2023-03-18T13:14:22.295Z,16.00
2023-03-18T13:16:52.841Z,16.00
2023-03-18T13:19:21.114Z,16.00
2023-03-18T13:21:53.643Z,16.10
2023-03-18T13:24:59.718Z,16.10
2023-03-18T13:27:44.630Z,16.00
2023-03-18T13:30:24.135Z,16.00
2023-03-18T13:33:10.402Z,16.20
2023-03-18T13:36:11.870Z,16.20
2023-03-18T13:39:10.525Z,16.30
2023-03-18T13:42:07.840Z,16.20
2023-03-18T13:44:42.402Z,16.30
2023-03-18T13:47:17.931Z,16.30
2023-03-18T13:49:46.770Z,16.30
2023-03-18T13:52:30.910Z,16.40
2023-03-18T13:55:04.196Z,16.40
2023-03-18T13:57:50.901Z,16.40
2023-03-18T14:00:41.916Z,16.40
2023-03-18T14:03:20.234Z,16.40
2023-03-18T14:05:50.304Z,16.40
2023-03-18T14:08:47.343Z,16.30
2023-03-18T14:11:48.327Z,16.30
2023-03-18T14:14:44.959Z,16.30
2023-03-18T14:17:23.633Z,16.30
2023-03-18T14:22:44.550Z,16.30
2023-03-18T14:25:35.407Z,16.30
2023-03-18T14:28:25.069Z,16.30
2023-03-18T14:31:15.163Z,16.30
2023-03-18T14:34:32.053Z,16.30
2023-03-18T14:37:20.441Z,16.20
2023-03-18T14:39:52.955Z,16.20
2023-03-18T14:42:49.388Z,16.10
2023-03-18T14:45:22.154Z,16.10
2023-03-18T14:48:19.598Z,16.10
2023-03-18T14:50:52.654Z,16.00
2023-03-18T14:53:24.645Z,15.90
2023-03-18T14:55:57.234Z,15.80
2023-03-18T14:58:28.090Z,15.80
2023-03-18T15:01:03.132Z,15.80
2023-03-18T15:03:34.061Z,15.70
2023-03-18T15:06:04.412Z,15.60
2023-03-18T15:08:47.345Z,15.50
2023-03-18T15:11:20.365Z,15.50
2023-03-18T15:13:48.627Z,15.50
2023-03-18T15:16:20.702Z,15.40
2023-03-18T15:18:55.468Z,15.30
2023-03-18T15:21:27.640Z,15.30
2023-03-18T15:23:58.828Z,15.20
2023-03-18T15:26:31.215Z,15.20
2023-03-18T15:29:02.351Z,15.20
2023-03-18T15:31:33.029Z,15.10
2023-03-18T15:34:15.372Z,15.10
2023-03-18T15:36:44.601Z,15.00
2023-03-18T15:39:22.491Z,15.00
2023-03-18T15:41:55.004Z,14.90
2023-03-18T15:44:28.597Z,14.80
2023-03-18T15:47:04.065Z,14.80
2023-03-18T15:49:33.983Z,14.80
2023-03-18T15:52:03.193Z,14.70
2023-03-18T15:54:41.659Z,14.70
2023-03-18T15:57:13.948Z,14.70
2023-03-18T15:59:41.956Z,14.60
2023-03-18T16:02:16.475Z,14.60
2023-03-18T16:04:48.285Z,14.50
2023-03-18T16:07:21.866Z,14.50
2023-03-18T16:09:51.274Z,14.50
2023-03-18T16:12:21.843Z,14.40
2023-03-18T16:14:51.451Z,14.30
2023-03-18T16:17:22.210Z,14.30
2023-03-18T16:20:17.788Z,14.30
2023-03-18T16:22:45.765Z,14.20
2023-03-18T16:25:14.639Z,14.10
2023-03-18T16:27:44.523Z,14.10
2023-03-18T16:30:20.550Z,14.00
2023-03-18T16:32:48.540Z,14.00
2023-03-18T16:35:20.532Z,13.90
2023-03-18T16:37:50.308Z,13.80
2023-03-18T16:40:21.247Z,13.90
2023-03-18T16:42:49.442Z,13.80
2023-03-18T16:45:19.037Z,13.60
2023-03-18T16:47:50.009Z,13.50
2023-03-18T16:50:22.223Z,13.40
2023-03-18T16:52:55.687Z,13.20
2023-03-18T16:55:24.426Z,13.10
2023-03-18T16:57:56.633Z,12.90
2023-03-18T17:00:30.060Z,12.80
2023-03-18T17:02:59.683Z,12.70
2023-03-18T17:05:30.013Z,12.50
2023-03-18T17:07:58.446Z,12.40
2023-03-18T17:10:28.050Z,12.30
2023-03-18T17:13:00.454Z,12.20
2023-03-18T17:15:31.766Z,12.00
2023-03-18T17:18:00.781Z,11.90
2023-03-18T17:20:32.380Z,11.80
2023-03-18T17:23:01.180Z,11.70
2023-03-18T17:25:31.049Z,11.60
2023-03-18T17:28:01.119Z,11.50
2023-03-18T17:30:33.484Z,11.40
2023-03-18T17:33:02.653Z,11.30
2023-03-18T17:35:34.663Z,11.20
2023-03-18T17:38:02.962Z,11.10
2023-03-18T17:40:32.066Z,11.10
2023-03-18T17:43:01.217Z,11.00
2023-03-18T17:45:32.181Z,10.80
2023-03-18T17:48:25.087Z,10.70
2023-03-18T17:53:48.259Z,10.50
2023-03-18T17:56:17.717Z,10.40
2023-03-18T17:58:47.129Z,10.30
2023-03-18T18:01:17.192Z,10.20
2023-03-18T18:03:45.491Z,10.10
2023-03-18T18:06:19.397Z,10.00
2023-03-18T18:08:48.563Z,9.90
2023-03-18T18:11:20.941Z,9.90
2023-03-18T18:13:50.177Z,9.80
2023-03-18T18:16:19.703Z,9.80
2023-03-18T18:18:49.664Z,9.70
2023-03-18T18:21:22.733Z,9.50
2023-03-18T18:23:52.486Z,9.50
2023-03-18T18:26:22.859Z,9.40
2023-03-18T18:28:52.150Z,9.40
2023-03-18T18:31:21.819Z,9.30
2023-03-18T18:33:51.213Z,9.40
2023-03-18T18:36:21.385Z,9.40
2023-03-18T18:38:49.855Z,9.40
2023-03-18T18:41:17.750Z,9.40
2023-03-18T18:43:45.658Z,9.30
2023-03-18T18:46:15.400Z,9.20
2023-03-18T18:48:45.682Z,9.10
2023-03-18T18:51:19.116Z,9.10
2023-03-18T18:53:49.212Z,9.00
2023-03-18T18:56:21.196Z,8.90
2023-03-18T18:58:49.615Z,8.80
2023-03-18T19:01:18.356Z,8.70
2023-03-18T19:03:46.988Z,8.60
2023-03-18T19:06:25.668Z,8.50
2023-03-18T19:08:57.640Z,8.50
2023-03-18T19:11:26.646Z,8.50
2023-03-18T19:13:55.872Z,8.50
2023-03-18T19:16:31.493Z,8.40
2023-03-18T19:18:59.832Z,8.30
2023-03-18T19:21:27.948Z,8.20
2023-03-18T19:23:58.302Z,8.10
2023-03-18T19:26:27.142Z,8.00
2023-03-18T19:28:59.414Z,8.00
2023-03-18T19:31:31.194Z,7.90
2023-03-18T19:34:00.867Z,7.90
2023-03-18T19:36:50.092Z,7.90
2023-03-18T19:39:21.525Z,7.80
2023-03-18T19:41:49.597Z,7.70
2023-03-18T19:44:20.453Z,7.70
2023-03-18T19:46:50.380Z,7.70
2023-03-18T19:49:21.012Z,7.70
2023-03-18T19:51:50.059Z,7.70
2023-03-18T19:54:29.899Z,7.60
2023-03-18T19:57:01.088Z,7.50
2023-03-18T19:59:37.331Z,7.50
2023-03-18T20:02:21.883Z,7.40
2023-03-18T20:04:50.945Z,7.40
2023-03-18T20:07:21.434Z,7.30
2023-03-18T20:09:51.642Z,7.30
2023-03-18T20:12:25.429Z,7.30
2023-03-18T20:14:54.480Z,7.20
2023-03-18T20:17:31.338Z,7.20
2023-03-18T20:19:59.478Z,7.10
2023-03-18T20:22:32.716Z,7.10
2023-03-18T20:25:02.293Z,7.00
2023-03-18T20:27:30.641Z,7.10
2023-03-18T20:29:59.572Z,6.90
2023-03-18T20:32:28.099Z,6.90
2023-03-18T20:34:56.699Z,6.90
2023-03-18T20:37:30.970Z,6.90
2023-03-18T20:39:59.034Z,6.80
2023-03-18T20:42:28.764Z,6.80
2023-03-18T20:44:57.164Z,6.80
2023-03-18T20:47:25.086Z,6.80
2023-03-18T20:49:54.758Z,6.70
2023-03-18T20:52:26.637Z,6.70
2023-03-18T20:54:56.754Z,6.60
2023-03-18T20:57:25.568Z,6.60
2023-03-18T20:59:55.416Z,6.50
2023-03-18T21:02:31.025Z,6.60
2023-03-18T21:05:00.513Z,6.50
2023-03-18T21:07:30.094Z,6.40
2023-03-18T21:09:58.776Z,6.30
2023-03-18T21:12:27.057Z,6.40
2023-03-18T21:14:56.713Z,6.40
2023-03-18T21:17:27.236Z,6.40
2023-03-18T21:20:05.040Z,6.40
2023-03-18T21:22:39.716Z,6.50
2023-03-18T21:25:09.224Z,6.50
2023-03-18T21:27:38.542Z,6.30
2023-03-18T21:30:10.772Z,6.30
2023-03-18T21:32:40.159Z,6.30
2023-03-18T21:35:15.748Z,6.20
2023-03-18T21:37:43.995Z,6.20
2023-03-18T21:40:16.401Z,6.10
2023-03-18T21:42:46.225Z,6.20
2023-03-18T21:45:17.853Z,6.20
2023-03-18T21:47:46.304Z,6.20
2023-03-18T21:50:22.221Z,6.20
2023-03-18T21:52:51.850Z,6.00
2023-03-18T21:55:20.725Z,6.10
2023-03-18T21:57:49.276Z,6.10
2023-03-18T22:00:21.225Z,6.10
2023-03-18T22:02:49.712Z,6.10
2023-03-18T22:05:20.402Z,6.10
2023-03-18T22:07:50.364Z,6.10
2023-03-18T22:10:20.373Z,6.10
2023-03-18T22:12:48.642Z,6.00
2023-03-18T22:15:41.960Z,6.00
2023-03-18T22:18:10.798Z,6.00
2023-03-18T22:20:40.932Z,6.00
2023-03-18T22:23:17.472Z,5.90
2023-03-18T22:25:46.800Z,5.90
2023-03-18T22:28:15.514Z,6.00
2023-03-18T22:30:47.407Z,6.00
2023-03-18T22:33:21.809Z,6.00
2023-03-18T22:35:49.926Z,5.90
2023-03-18T22:38:19.541Z,5.90
2023-03-18T22:40:50.044Z,5.90
2023-03-18T22:43:30.543Z,6.00
2023-03-18T22:46:00.797Z,6.00
2023-03-18T22:48:29.858Z,6.00
2023-03-18T22:51:00.009Z,6.00
2023-03-18T22:53:31.578Z,5.90
2023-03-18T22:56:06.909Z,5.90
2023-03-18T22:58:35.052Z,5.90
2023-03-18T23:01:05.379Z,6.00
2023-03-18T23:03:36.234Z,5.90
2023-03-18T23:06:07.842Z,5.90
2023-03-18T23:08:35.980Z,5.90
2023-03-18T23:11:04.513Z,5.90
2023-03-18T23:13:36.177Z,6.00
2023-03-18T23:16:08.817Z,5.90
2023-03-18T23:18:38.720Z,5.90
2023-03-18T23:21:07.065Z,5.90
2023-03-18T23:23:35.492Z,5.90
2023-03-18T23:26:03.640Z,5.90
2023-03-18T23:28:40.957Z,5.90
2023-03-18T23:31:14.116Z,5.80
2023-03-18T23:33:42.214Z,5.90
2023-03-18T23:36:10.545Z,5.80
2023-03-18T23:38:38.739Z,5.90
2023-03-18T23:41:07.542Z,5.80
2023-03-18T23:43:36.773Z,5.80
2023-03-18T23:46:04.811Z,5.80
2023-03-18T23:48:34.606Z,5.80
2023-03-18T23:51:02.536Z,5.80
2023-03-18T23:53:30.979Z,5.80
2023-03-18T23:55:59.458Z,5.80
2023-03-18T23:58:27.554Z,5.80
